Time;durP1;ratioP1;P1;durP2;ratioP2;P2;SDS_P1;SDS_P2;PMS_P1;PMS_P2;Temp;Humidity;BMP_temperature;BMP_pressure;BME280_temperature;BME280_humidity;BME280_pressure;Samples;Min_cycle;Max_cycle;Signal;HPM_P1;HPM_P2
2021/10/20 00:00:35;;;;;;;484.52;452.25;;;15.10;99.90;;;;;;5097337;28;20205;-77
2021/10/20 00:03:02;;;;;;;486.25;453.83;;;15.20;99.90;;;;;;5087901;28;20233;-77
2021/10/20 00:05:29;;;;;;;520.80;486.08;;;15.10;99.90;;;;;;5087197;28;20259;-77
2021/10/20 00:07:56;;;;;;;502.80;469.45;;;15.10;99.90;;;;;;5092104;28;20633;-77
2021/10/20 00:10:23;;;;;;;518.63;484.17;;;15.10;99.90;;;;;;5090098;28;20292;-77
2021/10/20 00:12:52;;;;;;;482.77;450.52;;;15.10;99.90;;;;;;5091295;28;20211;-76
2021/10/20 00:15:21;;;;;;;511.67;477.55;;;15.10;99.90;;;;;;5088178;28;20211;-76
2021/10/20 00:17:48;;;;;;;494.25;460.70;;;15.00;99.90;;;;;;5091734;28;20235;-77
2021/10/20 00:20:19;;;;;;;499.92;466.08;;;15.10;99.90;;;;;;5087748;28;20210;-77
2021/10/20 00:22:46;;;;;;;504.55;470.20;;;15.00;99.90;;;;;;5098648;28;20209;-77
2021/10/20 00:25:15;;;;;;;524.65;489.73;;;15.00;99.90;;;;;;5088143;28;20578;-76
2021/10/20 00:27:42;;;;;;;482.00;449.95;;;15.00;99.90;;;;;;5091412;28;20223;-77
2021/10/20 00:30:13;;;;;;;515.38;480.80;;;15.10;99.90;;;;;;5087178;28;20248;-77
2021/10/20 00:32:40;;;;;;;485.38;453.23;;;15.10;99.90;;;;;;5088155;28;20232;-77
2021/10/20 00:35:08;;;;;;;533.15;496.80;;;15.10;99.90;;;;;;5087734;28;20614;-77
2021/10/20 00:37:35;;;;;;;515.60;481.30;;;15.10;99.90;;;;;;5087388;28;20231;-77
2021/10/20 00:40:02;;;;;;;541.72;505.35;;;15.10;99.90;;;;;;5094562;28;20202;-76
2021/10/20 00:42:29;;;;;;;537.67;500.75;;;15.10;99.90;;;;;;5087468;28;20210;-76
2021/10/20 00:44:58;;;;;;;535.33;498.67;;;15.10;99.90;;;;;;5092117;28;20200;-76
2021/10/20 00:47:28;;;;;;;509.38;475.38;;;15.10;99.90;;;;;;5087342;28;20226;-77
2021/10/20 00:49:56;;;;;;;489.40;456.65;;;15.10;99.90;;;;;;5087497;28;20281;-76
2021/10/20 00:52:25;;;;;;;514.60;479.67;;;15.10;99.90;;;;;;5087942;28;20645;-76
2021/10/20 00:54:53;;;;;;;465.52;434.40;;;15.10;99.90;;;;;;5086519;28;20227;-76
2021/10/20 00:57:22;;;;;;;475.00;442.88;;;15.00;99.90;;;;;;5087294;28;20211;-76
2021/10/20 00:59:50;;;;;;;507.23;473.52;;;15.10;99.90;;;;;;5091822;28;20272;-76
2021/10/20 01:02:17;;;;;;;488.95;456.48;;;15.00;99.90;;;;;;5086145;28;20210;-76
2021/10/20 01:04:47;;;;;;;504.00;470.08;;;15.00;99.90;;;;;;5093345;28;20294;-76
2021/10/20 01:07:15;;;;;;;499.90;466.25;;;15.00;99.90;;;;;;5093319;28;20200;-76
2021/10/20 01:09:42;;;;;;;465.75;434.73;;;14.90;99.90;;;;;;5086343;28;20207;-76
2021/10/20 01:12:09;;;;;;;503.30;469.60;;;15.00;99.90;;;;;;5092828;28;20201;-76
2021/10/20 01:14:37;;;;;;;517.10;482.27;;;15.00;99.90;;;;;;5086833;28;20201;-76
2021/10/20 01:17:04;;;;;;;509.23;474.65;;;15.00;99.90;;;;;;5086413;28;20203;-76
2021/10/20 01:19:32;;;;;;;496.27;463.60;;;14.90;99.90;;;;;;5091213;28;20207;-77
2021/10/20 01:22:01;;;;;;;528.60;493.23;;;14.90;99.90;;;;;;5092162;28;20285;-77
2021/10/20 01:24:28;;;;;;;524.08;489.25;;;14.90;99.90;;;;;;5097096;28;20194;-77
2021/10/20 01:26:56;;;;;;;483.40;450.98;;;14.90;99.90;;;;;;5086679;28;20209;-77
2021/10/20 01:29:24;;;;;;;518.95;484.35;;;14.90;99.90;;;;;;5086909;28;20228;-77
2021/10/20 01:31:53;;;;;;;499.83;466.27;;;14.80;99.90;;;;;;5085865;28;20202;-77
2021/10/20 01:34:20;;;;;;;477.10;445.05;;;14.80;99.90;;;;;;5086815;28;20254;-77
2021/10/20 01:36:49;;;;;;;518.45;483.80;;;14.80;99.90;;;;;;5092125;28;20211;-76
2021/10/20 01:39:19;;;;;;;510.42;476.33;;;14.80;99.90;;;;;;5090088;28;20232;-77
2021/10/20 01:41:46;;;;;;;501.40;468.05;;;14.80;99.90;;;;;;5085986;28;20201;-77
2021/10/20 01:44:13;;;;;;;514.47;479.55;;;14.80;99.90;;;;;;5086139;28;20229;-77
2021/10/20 01:46:41;;;;;;;493.77;461.30;;;14.80;99.90;;;;;;5086141;28;20264;-76
2021/10/20 01:49:08;;;;;;;473.13;441.58;;;14.80;99.90;;;;;;5090199;28;20235;-76
2021/10/20 01:51:35;;;;;;;504.10;469.48;;;14.80;99.90;;;;;;5085904;28;20206;-76
2021/10/20 01:54:03;;;;;;;511.63;476.90;;;14.80;99.90;;;;;;5090624;28;20205;-76
2021/10/20 01:56:31;;;;;;;481.92;449.45;;;14.70;99.90;;;;;;5085965;28;20267;-76
2021/10/20 01:58:58;;;;;;;496.95;464.05;;;14.70;99.90;;;;;;5086043;28;20210;-76
2021/10/20 02:01:25;;;;;;;478.23;446.33;;;14.70;99.90;;;;;;5085649;28;20207;-76
2021/10/20 02:03:52;;;;;;;488.85;455.73;;;14.70;99.90;;;;;;5090935;28;20273;-76
2021/10/20 02:06:20;;;;;;;525.70;490.30;;;14.80;99.90;;;;;;5086209;28;20202;-76
2021/10/20 02:08:48;;;;;;;494.08;461.30;;;14.80;99.90;;;;;;5088908;28;20229;-76
2021/10/20 02:11:16;;;;;;;476.80;445.70;;;14.70;99.90;;;;;;5091730;28;20233;-76
2021/10/20 02:13:44;;;;;;;522.42;487.73;;;14.70;99.90;;;;;;5096180;28;20206;-76
2021/10/20 02:16:11;;;;;;;479.27;447.33;;;14.70;99.90;;;;;;5087584;28;20207;-76
2021/10/20 02:18:38;;;;;;;503.00;469.23;;;14.70;99.90;;;;;;5089247;28;20225;-76
2021/10/20 02:21:05;;;;;;;514.65;479.35;;;14.70;99.90;;;;;;5085924;28;20206;-76
2021/10/20 02:23:32;;;;;;;503.85;470.10;;;14.70;99.90;;;;;;5084698;28;20202;-76
2021/10/20 02:26:00;;;;;;;516.90;481.67;;;14.70;99.90;;;;;;5085205;28;20206;-77
2021/10/20 02:28:28;;;;;;;486.67;454.60;;;14.80;99.90;;;;;;5085612;28;20688;-76
2021/10/20 02:30:56;;;;;;;491.05;458.17;;;14.80;99.90;;;;;;5092205;28;20216;-77
2021/10/20 02:33:23;;;;;;;500.48;466.65;;;14.80;99.90;;;;;;5092154;28;20201;-76
2021/10/20 02:35:50;;;;;;;506.45;472.65;;;14.80;99.90;;;;;;5092206;28;20206;-76
2021/10/20 02:38:18;;;;;;;496.55;463.48;;;14.80;99.90;;;;;;5085976;28;20205;-76
2021/10/20 02:40:45;;;;;;;488.48;456.25;;;14.80;99.90;;;;;;5098584;28;20205;-77
2021/10/20 02:43:12;;;;;;;490.67;458.48;;;14.80;99.90;;;;;;5084998;28;20632;-76
2021/10/20 02:45:39;;;;;;;512.17;477.63;;;14.70;99.90;;;;;;5086165;28;20197;-76
2021/10/20 02:48:07;;;;;;;498.30;464.77;;;14.70;99.90;;;;;;5089497;28;20623;-76
2021/10/20 02:50:34;;;;;;;455.67;425.33;;;14.70;99.90;;;;;;5088397;28;20263;-77
2021/10/20 02:53:01;;;;;;;491.25;458.05;;;14.60;99.90;;;;;;5096192;28;20213;-77
2021/10/20 02:55:29;;;;;;;485.20;453.23;;;14.70;99.90;;;;;;5092065;28;20408;-77
2021/10/20 02:57:56;;;;;;;470.85;439.77;;;14.70;99.90;;;;;;5092095;28;20255;-77
2021/10/20 03:00:23;;;;;;;474.80;443.48;;;14.70;99.90;;;;;;5089017;28;20208;-76
2021/10/20 03:02:51;;;;;;;484.00;452.25;;;14.80;99.90;;;;;;5093925;28;20224;-76
2021/10/20 03:05:19;;;;;;;506.17;472.33;;;14.80;99.90;;;;;;5089493;28;20209;-77
2021/10/20 03:07:48;;;;;;;507.60;473.35;;;14.80;99.90;;;;;;5089267;28;20205;-77
2021/10/20 03:10:15;;;;;;;499.27;465.48;;;14.80;99.90;;;;;;5089062;28;20790;-76
2021/10/20 03:12:42;;;;;;;507.65;473.75;;;14.70;99.90;;;;;;5087643;28;20202;-76
2021/10/20 03:15:10;;;;;;;491.60;458.75;;;14.70;99.90;;;;;;5092753;28;20205;-76
2021/10/20 03:17:37;;;;;;;490.73;457.20;;;14.70;99.90;;;;;;5092228;28;20227;-76
2021/10/20 03:20:08;;;;;;;481.15;448.52;;;14.70;99.90;;;;;;5088880;28;20242;-76
2021/10/20 03:22:37;;;;;;;491.17;458.50;;;14.70;99.90;;;;;;5092668;28;20201;-76
2021/10/20 03:25:06;;;;;;;500.50;465.67;;;14.70;99.90;;;;;;5091556;28;20197;-76
2021/10/20 03:27:33;;;;;;;486.35;453.65;;;14.70;99.90;;;;;;5095817;28;20235;-76
2021/10/20 03:30:00;;;;;;;511.85;477.42;;;14.70;99.90;;;;;;5092264;28;20321;-76
2021/10/20 03:32:27;;;;;;;491.33;457.67;;;14.70;99.90;;;;;;5089057;28;20199;-76
2021/10/20 03:34:54;;;;;;;519.83;484.90;;;14.80;99.90;;;;;;5088672;28;20209;-76
2021/10/20 03:37:21;;;;;;;496.08;463.13;;;14.80;99.90;;;;;;5095945;28;20239;-76
2021/10/20 03:39:49;;;;;;;522.85;487.88;;;14.80;99.90;;;;;;5088296;28;20209;-75
2021/10/20 03:42:16;;;;;;;502.27;468.83;;;14.80;99.90;;;;;;5087141;28;20205;-76
2021/10/20 03:44:43;;;;;;;519.35;484.10;;;14.80;99.90;;;;;;5089417;28;20720;-76
2021/10/20 03:47:10;;;;;;;500.33;466.98;;;14.90;99.90;;;;;;5089115;28;20207;-76
2021/10/20 03:49:37;;;;;;;475.50;444.20;;;14.90;99.90;;;;;;5090327;28;21117;-76
2021/10/20 03:52:04;;;;;;;474.30;442.67;;;14.90;99.90;;;;;;5092659;28;20210;-75
2021/10/20 03:54:31;;;;;;;520.17;485.33;;;14.90;99.90;;;;;;5088232;28;20236;-76
2021/10/20 03:56:59;;;;;;;473.40;442.02;;;14.90;99.90;;;;;;5088110;28;20200;-75
2021/10/20 03:59:26;;;;;;;479.20;447.67;;;14.90;99.90;;;;;;5092437;28;20227;-75
2021/10/20 04:01:53;;;;;;;507.73;473.48;;;14.90;99.90;;;;;;5088408;28;20201;-75
2021/10/20 04:04:20;;;;;;;456.73;426.38;;;14.90;99.90;;;;;;5088269;28;20256;-75
2021/10/20 04:06:47;;;;;;;470.00;438.90;;;14.90;99.90;;;;;;5092864;28;20220;-76
2021/10/20 04:09:15;;;;;;;487.98;455.80;;;14.90;99.90;;;;;;5087498;28;20244;-75
2021/10/20 04:11:41;;;;;;;507.40;473.65;;;14.90;99.90;;;;;;5091501;28;20243;-76
2021/10/20 04:14:10;;;;;;;473.15;441.77;;;14.90;99.90;;;;;;5089610;28;20708;-76
2021/10/20 04:16:39;;;;;;;473.15;441.90;;;14.90;99.90;;;;;;5070127;28;20221;-76
2021/10/20 04:19:06;;;;;;;461.27;430.05;;;14.90;99.90;;;;;;5094474;28;20206;-76
2021/10/20 04:21:33;;;;;;;474.75;443.38;;;14.90;99.90;;;;;;5093955;28;20202;-76
2021/10/20 04:24:00;;;;;;;520.20;485.27;;;15.00;99.90;;;;;;5085715;28;20267;-76
2021/10/20 04:26:28;;;;;;;473.75;442.40;;;15.00;99.90;;;;;;5092567;28;20235;-76
2021/10/20 04:28:55;;;;;;;470.52;439.00;;;15.00;99.90;;;;;;5087650;28;20231;-76
2021/10/20 04:31:24;;;;;;;482.15;449.70;;;15.00;99.90;;;;;;5087372;28;20211;-76
2021/10/20 04:33:54;;;;;;;503.70;470.33;;;15.00;99.90;;;;;;5094160;28;20228;-76
2021/10/20 04:36:21;;;;;;;490.50;457.90;;;15.00;99.90;;;;;;5086522;28;20205;-76
2021/10/20 04:38:48;;;;;;;508.90;474.73;;;15.00;99.90;;;;;;5086584;28;20197;-76
2021/10/20 04:41:14;;;;;;;475.35;444.20;;;15.10;99.90;;;;;;5093832;28;20322;-76
2021/10/20 04:43:41;;;;;;;464.80;433.55;;;15.10;99.90;;;;;;5093279;28;20251;-76
2021/10/20 04:46:08;;;;;;;508.83;474.85;;;15.10;99.90;;;;;;5094008;28;20208;-76
2021/10/20 04:48:37;;;;;;;492.85;459.13;;;15.10;99.90;;;;;;5096634;28;20234;-76
2021/10/20 04:51:04;;;;;;;472.50;440.55;;;15.10;99.90;;;;;;5087731;28;20246;-76
2021/10/20 04:53:31;;;;;;;454.02;423.88;;;15.10;99.90;;;;;;5086274;28;20205;-76
2021/10/20 04:55:57;;;;;;;454.80;424.17;;;15.10;99.90;;;;;;5086055;28;21121;-76
2021/10/20 04:58:24;;;;;;;498.98;465.73;;;15.10;99.90;;;;;;5092765;28;20201;-76
2021/10/20 05:00:51;;;;;;;487.63;454.80;;;15.10;99.90;;;;;;5087020;28;20282;-76
2021/10/20 05:03:18;;;;;;;478.35;446.15;;;15.10;99.90;;;;;;5086552;28;20225;-75
2021/10/20 05:05:46;;;;;;;497.58;464.45;;;15.10;99.90;;;;;;5093251;28;20202;-76
2021/10/20 05:08:13;;;;;;;483.80;451.45;;;15.10;99.90;;;;;;5086191;28;20202;-76
2021/10/20 05:10:40;;;;;;;463.02;432.50;;;15.10;99.90;;;;;;5089737;28;20224;-76
2021/10/20 05:13:07;;;;;;;457.30;426.98;;;15.10;99.90;;;;;;5086851;28;20212;-76
2021/10/20 05:15:34;;;;;;;506.67;472.80;;;15.10;99.90;;;;;;5085678;28;20227;-75
2021/10/20 05:18:01;;;;;;;486.55;454.23;;;15.10;99.90;;;;;;5086064;28;20274;-76
2021/10/20 05:20:28;;;;;;;484.35;451.77;;;15.20;99.90;;;;;;5093395;28;20196;-75
2021/10/20 05:22:56;;;;;;;482.45;450.35;;;15.10;99.90;;;;;;5087177;28;20210;-75
2021/10/20 05:25:23;;;;;;;473.08;441.35;;;15.20;99.90;;;;;;5093452;28;20525;-75
2021/10/20 05:27:51;;;;;;;475.15;443.83;;;15.10;99.90;;;;;;5093433;28;20266;-75
2021/10/20 05:30:18;;;;;;;494.98;461.38;;;15.10;99.90;;;;;;5091979;28;20240;-75
2021/10/20 05:32:45;;;;;;;497.73;464.63;;;15.20;99.90;;;;;;5086608;28;20202;-75
2021/10/20 05:35:18;;;;;;;466.13;435.10;;;15.20;99.90;;;;;;5086988;28;20207;-75
2021/10/20 05:37:46;;;;;;;479.80;448.15;;;15.20;99.90;;;;;;5091605;28;20209;-75
2021/10/20 05:40:14;;;;;;;479.20;447.23;;;15.20;99.90;;;;;;5091204;28;20271;-76
2021/10/20 05:42:41;;;;;;;455.80;424.95;;;15.20;99.90;;;;;;5086340;28;20202;-75
2021/10/20 05:45:09;;;;;;;512.80;478.60;;;15.30;99.90;;;;;;5085771;28;20207;-75
2021/10/20 05:47:36;;;;;;;476.48;444.58;;;15.30;99.90;;;;;;5095673;28;20204;-75
2021/10/20 05:50:03;;;;;;;497.77;463.92;;;15.30;99.90;;;;;;5089252;28;20282;-76
2021/10/20 05:52:30;;;;;;;518.72;483.85;;;15.20;99.90;;;;;;5086017;28;20228;-75
2021/10/20 05:54:58;;;;;;;517.13;482.48;;;15.30;99.90;;;;;;5090389;28;20642;-75
2021/10/20 05:57:27;;;;;;;478.33;446.17;;;15.30;99.90;;;;;;5092892;28;20219;-75
2021/10/20 05:59:55;;;;;;;493.10;460.45;;;15.20;99.90;;;;;;5085790;28;20208;-75
2021/10/20 06:02:22;;;;;;;477.33;445.70;;;15.20;99.90;;;;;;5086178;28;20273;-75
2021/10/20 06:04:50;;;;;;;460.92;429.77;;;15.20;99.90;;;;;;5092113;28;20232;-75
2021/10/20 06:07:17;;;;;;;471.75;440.80;;;15.10;99.90;;;;;;5092974;28;20219;-75
2021/10/20 06:09:44;;;;;;;326.05;306.58;;;15.10;99.90;;;;;;5088207;28;20482;-75
2021/10/20 06:12:10;;;;;;;438.42;409.67;;;15.10;99.90;;;;;;5090532;28;20194;-75
2021/10/20 06:14:39;;;;;;;453.67;423.65;;;15.10;99.90;;;;;;5085688;28;20199;-75
2021/10/20 06:17:06;;;;;;;482.15;450.23;;;15.10;99.90;;;;;;5086608;28;20254;-75
2021/10/20 06:19:33;;;;;;;474.48;442.63;;;15.10;99.90;;;;;;5085910;28;20263;-76
2021/10/20 06:22:00;;;;;;;492.25;458.95;;;15.10;99.90;;;;;;5089124;28;20271;-75
2021/10/20 06:24:27;;;;;;;483.52;451.63;;;15.10;99.90;;;;;;5089315;28;20294;-75
2021/10/20 06:26:55;;;;;;;508.58;474.70;;;15.10;99.90;;;;;;5090765;28;20587;-77
2021/10/20 06:29:26;;;;;;;462.48;431.85;;;15.20;99.90;;;;;;5093648;28;20293;-75
2021/10/20 06:31:55;;;;;;;494.80;461.95;;;15.20;99.90;;;;;;5094573;28;20217;-75
2021/10/20 06:34:28;;;;;;;503.48;469.02;;;15.20;99.90;;;;;;5089986;28;20225;-77
2021/10/20 06:36:55;;;;;;;479.42;447.58;;;15.20;99.90;;;;;;5096850;28;20718;-75
2021/10/20 06:39:24;;;;;;;502.63;469.05;;;15.30;99.90;;;;;;5090222;28;20231;-75
2021/10/20 06:41:51;;;;;;;460.65;430.33;;;15.20;99.90;;;;;;5093256;28;20216;-76
2021/10/20 06:44:18;;;;;;;454.25;424.20;;;15.30;99.90;;;;;;5094371;28;20226;-76
2021/10/20 06:46:45;;;;;;;456.17;426.05;;;15.20;99.90;;;;;;5092799;28;20246;-76
2021/10/20 06:49:14;;;;;;;475.95;444.40;;;15.20;99.90;;;;;;5089258;28;20654;-76
2021/10/20 06:51:42;;;;;;;482.88;450.90;;;15.20;99.90;;;;;;5095873;28;20213;-76
2021/10/20 06:54:10;;;;;;;466.27;435.45;;;15.20;99.90;;;;;;5089846;28;20201;-76
2021/10/20 06:56:37;;;;;;;488.95;456.63;;;15.30;99.90;;;;;;5089993;28;20235;-78
2021/10/20 06:59:04;;;;;;;485.77;453.33;;;15.30;99.90;;;;;;5094333;28;20199;-75
2021/10/20 07:01:31;;;;;;;517.08;482.23;;;15.30;99.90;;;;;;5089058;28;20320;-76
2021/10/20 07:03:58;;;;;;;469.90;438.10;;;15.30;99.90;;;;;;5088740;28;20237;-76
2021/10/20 07:06:28;;;;;;;471.33;440.13;;;15.40;99.90;;;;;;5087977;28;20229;-76
2021/10/20 07:08:56;;;;;;;504.65;471.02;;;15.40;99.90;;;;;;5089086;28;20266;-76
2021/10/20 07:11:23;;;;;;;454.45;424.38;;;15.40;99.90;;;;;;5096812;28;20290;-76
2021/10/20 07:13:50;;;;;;;466.95;435.60;;;15.50;99.90;;;;;;5088755;28;20210;-76
2021/10/20 07:16:18;;;;;;;461.98;431.45;;;15.50;99.90;;;;;;5089223;28;20251;-76
2021/10/20 07:18:45;;;;;;;496.73;463.40;;;15.50;99.90;;;;;;5100337;28;20577;-76
2021/10/20 07:21:12;;;;;;;496.98;462.83;;;15.50;99.90;;;;;;5089144;28;20206;-76
2021/10/20 07:23:40;;;;;;;483.27;450.98;;;15.50;99.90;;;;;;5090488;28;20206;-76
2021/10/20 07:26:07;;;;;;;465.73;435.13;;;15.50;99.90;;;;;;5096172;28;20209;-75
2021/10/20 07:28:34;;;;;;;493.27;460.35;;;15.50;99.90;;;;;;5096355;28;20222;-75
2021/10/20 07:31:01;;;;;;;484.67;452.75;;;15.50;99.90;;;;;;5087760;28;20286;-75
2021/10/20 07:33:28;;;;;;;443.67;414.40;;;15.50;99.90;;;;;;5095553;28;20704;-75
2021/10/20 07:35:56;;;;;;;478.85;446.10;;;15.50;99.90;;;;;;5088903;28;20259;-76
2021/10/20 07:38:23;;;;;;;451.15;420.92;;;15.50;99.90;;;;;;5087934;28;20227;-76
2021/10/20 07:40:52;;;;;;;458.08;426.55;;;15.50;99.90;;;;;;5089521;28;20565;-76
2021/10/20 07:43:19;;;;;;;442.85;413.75;;;15.60;99.90;;;;;;5093852;28;21177;-76
2021/10/20 07:45:46;;;;;;;464.23;433.20;;;15.50;99.90;;;;;;5089040;28;20210;-76
2021/10/20 07:48:13;;;;;;;465.05;434.27;;;15.60;99.90;;;;;;5093691;28;20202;-76
2021/10/20 07:50:42;;;;;;;482.08;450.02;;;15.70;99.90;;;;;;5092699;28;20233;-76
2021/10/20 07:53:09;;;;;;;485.90;453.45;;;15.70;99.90;;;;;;5095102;28;20595;-76
2021/10/20 07:55:36;;;;;;;433.60;404.92;;;15.80;99.90;;;;;;5088757;28;20202;-76
2021/10/20 07:58:05;;;;;;;445.98;416.52;;;15.80;99.90;;;;;;5088004;28;20205;-76
2021/10/20 08:00:32;;;;;;;430.90;402.52;;;15.90;99.90;;;;;;5087986;28;20589;-76
2021/10/20 08:03:01;;;;;;;473.27;441.48;;;15.90;99.90;;;;;;5088404;28;20228;-76
2021/10/20 08:05:28;;;;;;;471.08;439.92;;;15.90;99.90;;;;;;5086815;28;20912;-76
2021/10/20 08:07:57;;;;;;;473.35;441.90;;;16.00;99.90;;;;;;5088732;28;20623;-76
2021/10/20 08:10:26;;;;;;;459.45;428.92;;;16.00;99.90;;;;;;5096896;28;20225;-76
2021/10/20 08:12:55;;;;;;;440.33;410.85;;;16.00;99.90;;;;;;5094562;28;20258;-76
2021/10/20 08:15:25;;;;;;;464.02;433.02;;;16.10;99.90;;;;;;5088090;28;20206;-76
2021/10/20 08:17:52;;;;;;;451.40;421.35;;;16.10;99.90;;;;;;5089380;28;20201;-76
2021/10/20 08:20:22;;;;;;;446.60;416.83;;;16.10;99.90;;;;;;5092218;28;20206;-76
2021/10/20 08:22:49;;;;;;;440.40;410.90;;;16.20;99.90;;;;;;5087183;28;20243;-76
2021/10/20 08:25:17;;;;;;;441.42;411.83;;;16.20;99.90;;;;;;5094132;28;20243;-76
2021/10/20 08:27:44;;;;;;;427.05;399.13;;;16.10;99.90;;;;;;5096107;28;20231;-76
2021/10/20 08:30:17;;;;;;;419.52;392.23;;;16.20;99.90;;;;;;5097426;28;20774;-72
2021/10/20 08:32:46;;;;;;;459.13;428.63;;;16.20;99.90;;;;;;5087447;28;20239;-73
2021/10/20 08:35:16;;;;;;;458.17;427.27;;;16.20;99.90;;;;;;5087620;28;20255;-73
2021/10/20 08:37:43;;;;;;;454.27;423.98;;;16.30;99.90;;;;;;5085214;28;20224;-73
2021/10/20 08:40:12;;;;;;;443.77;414.33;;;16.30;99.90;;;;;;5091232;28;20211;-73
2021/10/20 08:42:39;;;;;;;427.73;399.45;;;16.50;99.90;;;;;;5090837;28;20210;-73
2021/10/20 08:45:08;;;;;;;435.52;406.63;;;16.70;99.90;;;;;;5085441;28;20658;-76
2021/10/20 08:47:35;;;;;;;425.25;397.52;;;16.80;99.90;;;;;;5085720;28;20266;-76
2021/10/20 08:50:06;;;;;;;461.27;430.63;;;16.70;99.90;;;;;;5087141;28;20291;-76
2021/10/20 08:52:33;;;;;;;422.42;394.23;;;16.70;99.90;;;;;;5092617;28;20252;-76
2021/10/20 08:55:01;;;;;;;417.48;390.08;;;16.80;99.90;;;;;;5085667;28;20224;-76
2021/10/20 08:57:28;;;;;;;415.52;388.25;;;16.90;99.90;;;;;;5099029;28;20206;-76
2021/10/20 08:59:55;;;;;;;445.10;415.17;;;16.90;99.90;;;;;;5099914;28;20219;-76
2021/10/20 09:02:23;;;;;;;411.23;384.48;;;16.90;99.90;;;;;;5101694;28;20228;-76
2021/10/20 09:04:54;;;;;;;446.85;416.98;;;16.90;99.90;;;;;;5090167;28;20324;-76
2021/10/20 09:07:22;;;;;;;421.13;393.40;;;16.90;99.90;;;;;;5084993;28;20286;-76
2021/10/20 09:09:53;;;;;;;443.77;414.20;;;17.00;99.90;;;;;;5086099;28;20227;-76
2021/10/20 09:12:26;;;;;;;398.33;372.65;;;17.00;99.90;;;;;;5089855;28;20210;-75
2021/10/20 09:14:57;;;;;;;438.55;409.50;;;17.10;99.90;;;;;;5097182;28;20214;-77
2021/10/20 09:17:24;;;;;;;418.67;391.35;;;17.10;99.90;;;;;;5091890;28;20236;-73
2021/10/20 09:19:52;;;;;;;387.88;363.27;;;17.00;99.90;;;;;;5091443;28;20203;-73
2021/10/20 09:22:19;;;;;;;391.45;366.15;;;17.00;99.90;;;;;;5093881;28;20207;-73
2021/10/20 09:24:48;;;;;;;429.10;400.92;;;16.90;99.90;;;;;;5086821;28;20231;-73
2021/10/20 09:27:25;;;;;;;411.20;383.60;;;16.90;99.90;;;;;;5086703;28;20227;-73
2021/10/20 09:30:09;;;;;;;422.05;394.35;;;16.80;99.90;;;;;;5086736;28;20609;-73
2021/10/20 09:32:36;;;;;;;406.23;379.92;;;16.70;99.90;;;;;;5086074;28;20327;-72
2021/10/20 09:35:04;;;;;;;452.25;421.75;;;16.60;99.90;;;;;;5087854;28;20260;-73
2021/10/20 09:37:31;;;;;;;434.20;405.35;;;16.60;99.90;;;;;;5089843;28;20214;-72
2021/10/20 09:40:04;;;;;;;409.05;382.63;;;16.60;99.90;;;;;;5094997;28;20201;-73
2021/10/20 09:42:42;;;;;;;424.55;396.95;;;16.60;99.90;;;;;;5091729;28;20225;-73
2021/10/20 09:45:10;;;;;;;419.08;391.63;;;16.50;99.90;;;;;;5086065;28;20209;-74
2021/10/20 09:47:39;;;;;;;416.17;389.10;;;16.60;99.90;;;;;;5085485;28;20625;-73
2021/10/20 09:50:09;;;;;;;427.42;399.55;;;16.60;99.90;;;;;;5088749;28;20273;-76
2021/10/20 09:52:47;;;;;;;403.38;377.42;;;16.50;99.90;;;;;;5094333;28;20235;-72
2021/10/20 09:55:16;;;;;;;414.13;386.85;;;16.60;99.90;;;;;;5091793;28;20266;-72
2021/10/20 09:57:44;;;;;;;410.02;383.63;;;16.60;99.90;;;;;;5085442;28;20208;-72
2021/10/20 10:00:11;;;;;;;415.75;388.83;;;16.70;99.90;;;;;;5086599;28;20263;-72
2021/10/20 10:04:58;;;;;;;432.58;403.52;;;16.80;99.90;;;;;;5107995;27;20683;-73
2021/10/20 10:07:24;;;;;;;467.88;436.55;;;16.80;99.90;;;;;;5095906;28;20206;-72
2021/10/20 10:09:51;;;;;;;442.17;413.00;;;16.80;99.90;;;;;;5101002;28;20216;-72
2021/10/20 10:12:23;;;;;;;434.30;405.55;;;16.80;99.90;;;;;;5101232;28;20213;-73
2021/10/20 10:14:52;;;;;;;470.27;438.65;;;16.80;99.90;;;;;;5100854;28;20205;-72
2021/10/20 10:17:20;;;;;;;432.52;404.15;;;16.80;99.90;;;;;;5100993;28;20234;-72
2021/10/20 10:19:47;;;;;;;417.73;390.25;;;16.80;99.90;;;;;;5101585;28;20200;-72
2021/10/20 10:22:23;;;;;;;423.42;395.95;;;16.90;99.90;;;;;;5101244;28;20206;-72
2021/10/20 10:24:50;;;;;;;421.90;393.75;;;16.90;99.90;;;;;;5101486;28;20291;-72
2021/10/20 10:27:18;;;;;;;412.67;385.77;;;17.00;99.90;;;;;;5100906;28;20198;-76
2021/10/20 10:29:50;;;;;;;417.48;389.92;;;17.00;99.90;;;;;;5101234;28;20233;-77
2021/10/20 10:32:20;;;;;;;414.00;387.10;;;17.10;99.90;;;;;;5100770;28;20331;-76
2021/10/20 10:34:49;;;;;;;415.15;387.45;;;17.10;99.90;;;;;;5100463;28;20217;-76
2021/10/20 10:37:28;;;;;;;428.40;400.02;;;17.10;99.90;;;;;;5098624;28;20277;-76
2021/10/20 10:39:56;;;;;;;420.73;393.33;;;17.20;99.90;;;;;;5100554;28;20232;-76
2021/10/20 10:42:32;;;;;;;411.45;384.25;;;17.20;99.90;;;;;;5101436;28;20193;-76
2021/10/20 10:45:11;;;;;;;445.92;416.30;;;17.20;99.90;;;;;;5101306;28;20290;-76
2021/10/20 10:47:55;;;;;;;418.15;391.08;;;17.10;99.90;;;;;;5097761;28;20204;-76
2021/10/20 10:50:37;;;;;;;455.10;424.92;;;17.10;99.90;;;;;;5100393;28;20208;-76
2021/10/20 10:53:06;;;;;;;419.60;392.05;;;17.10;99.90;;;;;;5097762;28;20828;-76
2021/10/20 10:55:33;;;;;;;401.33;375.38;;;17.20;99.90;;;;;;5100960;28;20229;-76
2021/10/20 10:58:01;;;;;;;405.38;379.40;;;17.20;99.90;;;;;;5100238;28;20205;-76
2021/10/20 11:00:44;;;;;;;401.15;375.00;;;17.20;99.90;;;;;;5100781;28;20197;-76
2021/10/20 11:03:17;;;;;;;445.90;416.08;;;17.20;99.90;;;;;;5101492;28;20272;-76
2021/10/20 11:05:53;;;;;;;434.13;405.25;;;17.20;99.90;;;;;;5100037;28;20210;-76
2021/10/20 11:08:22;;;;;;;413.00;386.27;;;17.30;99.90;;;;;;5100966;28;20208;-76
2021/10/20 11:10:50;;;;;;;444.45;414.00;;;17.30;99.90;;;;;;5100706;28;20211;-76
2021/10/20 11:13:18;;;;;;;403.95;376.90;;;17.20;99.90;;;;;;5100803;28;20224;-75
2021/10/20 11:15:46;;;;;;;424.90;396.95;;;17.20;99.90;;;;;;5088804;28;20228;-76
2021/10/20 11:18:14;;;;;;;411.35;384.55;;;17.20;99.90;;;;;;5087321;28;20209;-76
2021/10/20 11:20:43;;;;;;;425.17;396.85;;;17.20;99.90;;;;;;5087687;28;20228;-76
2021/10/20 11:23:13;;;;;;;438.50;408.98;;;17.20;99.90;;;;;;5090314;28;20221;-76
2021/10/20 11:25:44;;;;;;;451.13;420.70;;;17.30;99.90;;;;;;5086851;28;20734;-76
2021/10/20 11:28:12;;;;;;;416.48;389.33;;;17.30;99.90;;;;;;5087061;28;20196;-76
2021/10/20 11:30:41;;;;;;;424.77;396.50;;;17.30;99.90;;;;;;5086616;28;20308;-76
2021/10/20 11:33:17;;;;;;;418.55;391.17;;;17.30;99.90;;;;;;5085680;28;20331;-75
2021/10/20 11:35:45;;;;;;;441.50;412.08;;;17.40;99.90;;;;;;5083605;28;20210;-76
2021/10/20 11:38:14;;;;;;;440.02;410.13;;;17.40;99.90;;;;;;5086626;28;20202;-76
2021/10/20 11:40:47;;;;;;;442.52;412.98;;;17.40;99.90;;;;;;5086581;28;20209;-77
2021/10/20 11:43:18;;;;;;;403.85;377.58;;;17.50;99.90;;;;;;5087058;28;20209;-77
2021/10/20 11:45:45;;;;;;;415.80;388.73;;;17.50;99.90;;;;;;5086400;28;20279;-76
2021/10/20 11:48:15;;;;;;;429.98;401.23;;;17.60;99.90;;;;;;5086496;28;20210;-76
2021/10/20 11:50:42;;;;;;;418.65;390.48;;;17.60;99.90;;;;;;5086542;28;20268;-76
2021/10/20 11:53:09;;;;;;;424.23;396.42;;;17.60;99.90;;;;;;5086583;28;20203;-76
2021/10/20 11:55:43;;;;;;;427.73;399.15;;;17.60;99.90;;;;;;5087415;28;20206;-76
2021/10/20 11:58:18;;;;;;;423.55;395.17;;;17.60;99.90;;;;;;5086079;28;20202;-76
2021/10/20 12:00:50;;;;;;;402.58;376.45;;;17.60;99.90;;;;;;5086763;28;20202;-76
2021/10/20 12:03:17;;;;;;;445.83;416.08;;;17.70;99.90;;;;;;5085811;28;20234;-76
2021/10/20 12:05:44;;;;;;;433.20;404.70;;;17.70;99.90;;;;;;5085710;28;20202;-76
2021/10/20 12:08:11;;;;;;;425.40;396.90;;;17.70;99.90;;;;;;5086807;28;20255;-76
2021/10/20 12:10:40;;;;;;;403.63;376.67;;;17.60;99.90;;;;;;5086005;28;20202;-76
2021/10/20 12:13:08;;;;;;;438.98;409.55;;;17.60;99.90;;;;;;5076188;28;20206;-77
2021/10/20 12:15:41;;;;;;;441.13;411.30;;;17.60;99.90;;;;;;5072927;28;20200;-76